createdAt,value
2018-02-02T00:02:18.510Z,3.50
2018-02-02T00:04:49.033Z,3.50
2018-02-02T00:07:18.309Z,3.50
2018-02-02T00:09:47.251Z,3.40
2018-02-02T00:12:16.371Z,3.50
2018-02-02T00:14:45.380Z,3.40
2018-02-02T00:17:15.129Z,3.30
2018-02-02T00:19:44.486Z,3.40
2018-02-02T00:22:13.853Z,3.40
2018-02-02T00:24:42.868Z,3.40
2018-02-02T00:27:12.270Z,3.50
2018-02-02T00:29:41.621Z,3.40
2018-02-02T00:32:10.595Z,3.30
2018-02-02T00:34:39.564Z,3.30
2018-02-02T00:37:08.605Z,3.50
2018-02-02T00:39:37.645Z,3.50
2018-02-02T00:42:06.642Z,3.50
2018-02-02T00:44:36.447Z,3.90
2018-02-02T00:47:05.448Z,3.50
2018-02-02T00:49:35.193Z,3.50
2018-02-02T00:52:04.126Z,3.50
2018-02-02T00:54:33.124Z,3.50
2018-02-02T00:57:02.250Z,3.50
2018-02-02T00:59:31.220Z,3.40
2018-02-02T01:02:01.864Z,3.50
2018-02-02T01:04:31.305Z,3.50
2018-02-02T01:07:00.271Z,3.40
2018-02-02T01:09:29.209Z,3.40
2018-02-02T01:11:58.265Z,3.40
2018-02-02T01:14:27.652Z,3.40
2018-02-02T01:16:56.640Z,3.40
2018-02-02T01:19:25.590Z,3.40
2018-02-02T01:21:54.690Z,3.40
2018-02-02T01:24:23.598Z,3.40
2018-02-02T01:26:52.635Z,3.40
2018-02-02T01:29:21.954Z,3.40
2018-02-02T01:31:50.977Z,3.40
2018-02-02T01:34:19.971Z,3.40
2018-02-02T01:36:48.952Z,3.40
2018-02-02T01:39:17.895Z,3.40
2018-02-02T01:41:46.894Z,3.50
2018-02-02T01:44:15.857Z,3.50
2018-02-02T01:46:45.592Z,3.50
2018-02-02T01:49:14.587Z,3.40
2018-02-02T01:51:43.645Z,3.40
2018-02-02T01:54:12.975Z,3.50
2018-02-02T01:56:42.043Z,3.50
2018-02-02T01:59:10.981Z,3.40
2018-02-02T02:01:39.941Z,3.40
2018-02-02T02:04:08.902Z,3.40
2018-02-02T02:06:38.181Z,3.50
2018-02-02T02:09:08.478Z,3.60
2018-02-02T02:11:37.398Z,3.50
2018-02-02T02:14:06.365Z,3.60
2018-02-02T02:16:35.347Z,3.60
2018-02-02T02:19:04.328Z,3.60
2018-02-02T02:21:33.327Z,3.60
2018-02-02T02:24:02.289Z,3.60
2018-02-02T02:26:32.031Z,3.50
2018-02-02T02:29:01.016Z,3.60
2018-02-02T02:31:30.408Z,3.50
2018-02-02T02:33:59.396Z,3.60
2018-02-02T02:36:29.124Z,3.50
2018-02-02T02:38:58.578Z,3.50
2018-02-02T02:41:28.172Z,3.50
2018-02-02T02:43:57.148Z,3.40
2018-02-02T02:46:26.111Z,3.50
2018-02-02T02:48:55.861Z,3.50
2018-02-02T02:51:25.262Z,3.60
2018-02-02T02:53:55.276Z,3.60
2018-02-02T02:56:24.248Z,3.50
2018-02-02T02:58:53.571Z,3.40
2018-02-02T03:01:23.318Z,3.50
2018-02-02T03:03:52.700Z,3.50
2018-02-02T03:06:22.458Z,3.50
2018-02-02T03:08:51.809Z,3.60
2018-02-02T03:11:20.891Z,3.50
2018-02-02T03:13:49.889Z,3.60
2018-02-02T03:16:18.843Z,3.40
2018-02-02T03:18:47.832Z,3.40
2018-02-02T03:21:16.782Z,3.40
2018-02-02T03:23:46.155Z,3.30
2018-02-02T03:26:15.165Z,3.30
2018-02-02T03:28:44.126Z,3.30
2018-02-02T03:31:13.107Z,3.20
2018-02-02T03:33:42.085Z,3.20
2018-02-02T03:36:11.036Z,3.10
2018-02-02T03:38:40.040Z,3.00
2018-02-02T03:41:09.805Z,2.90
2018-02-02T03:43:38.785Z,2.90
2018-02-02T03:46:07.758Z,2.90
2018-02-02T03:48:36.714Z,2.90
2018-02-02T03:51:06.255Z,2.90
2018-02-02T03:53:35.747Z,2.90
2018-02-02T03:56:04.737Z,2.80
2018-02-02T03:58:33.730Z,2.80
2018-02-02T04:01:03.458Z,2.70
2018-02-02T04:03:32.928Z,2.80
2018-02-02T04:06:01.938Z,2.70
2018-02-02T04:08:31.750Z,2.70
2018-02-02T04:11:01.537Z,2.70
2018-02-02T04:13:30.597Z,2.70
2018-02-02T04:15:59.569Z,2.80
2018-02-02T04:18:28.590Z,2.80
2018-02-02T04:20:57.612Z,2.70
2018-02-02T04:23:27.029Z,2.60
2018-02-02T04:25:56.365Z,2.60
2018-02-02T04:28:25.340Z,2.70
2018-02-02T04:30:54.272Z,2.60
2018-02-02T04:33:24.089Z,2.60
2018-02-02T04:35:53.553Z,2.50
2018-02-02T04:38:22.627Z,2.50
2018-02-02T04:40:51.694Z,2.50
2018-02-02T04:43:20.690Z,2.50
2018-02-02T04:45:49.683Z,2.50
2018-02-02T04:48:18.762Z,2.50
2018-02-02T04:50:47.795Z,2.50
2018-02-02T04:53:16.730Z,2.40
2018-02-02T04:55:45.737Z,2.30
2018-02-02T04:58:14.692Z,2.20
2018-02-02T05:00:44.037Z,2.20
2018-02-02T05:03:13.208Z,2.30
2018-02-02T05:05:42.161Z,2.40
2018-02-02T05:08:11.931Z,2.30
2018-02-02T05:10:41.682Z,2.40
2018-02-02T05:13:11.392Z,2.40
2018-02-02T05:15:41.211Z,2.30
2018-02-02T05:18:10.706Z,2.40
2018-02-02T05:20:39.665Z,2.40
2018-02-02T05:23:08.655Z,2.30
2018-02-02T05:25:37.644Z,2.30
2018-02-02T05:28:07.392Z,2.40
2018-02-02T05:30:37.164Z,2.50
2018-02-02T05:33:06.141Z,2.50
2018-02-02T05:35:35.147Z,2.40
2018-02-02T05:38:04.905Z,2.40
2018-02-02T05:40:34.247Z,2.40
2018-02-02T05:43:03.291Z,2.40
2018-02-02T05:45:32.700Z,2.90
2018-02-02T05:48:01.656Z,2.40
2018-02-02T05:50:30.635Z,3.00
2018-02-02T05:53:00.373Z,2.50
2018-02-02T05:55:29.352Z,2.50
2018-02-02T05:57:58.346Z,2.60
2018-02-02T06:00:28.109Z,2.60
2018-02-02T06:02:57.071Z,2.50
2018-02-02T06:05:26.704Z,2.50
2018-02-02T06:07:55.673Z,2.50
2018-02-02T06:10:25.395Z,2.40
2018-02-02T06:12:55.144Z,2.50
2018-02-02T06:15:24.612Z,2.60
2018-02-02T06:17:53.504Z,2.60
2018-02-02T06:20:22.537Z,2.60
2018-02-02T06:22:51.487Z,2.50
2018-02-02T06:25:20.922Z,2.70
2018-02-02T06:27:51.043Z,2.60
2018-02-02T06:30:22.159Z,2.70
2018-02-02T06:32:51.128Z,2.90
2018-02-02T06:35:20.510Z,2.90
2018-02-02T06:37:49.460Z,2.90
2018-02-02T06:40:21.306Z,3.00
2018-02-02T06:42:50.383Z,3.00
2018-02-02T06:45:19.777Z,3.10
2018-02-02T06:47:49.496Z,3.10
2018-02-02T06:50:19.264Z,3.00
2018-02-02T06:52:48.673Z,3.10
2018-02-02T06:55:19.190Z,3.20
2018-02-02T06:57:48.245Z,3.20
2018-02-02T07:00:17.886Z,3.30
2018-02-02T07:02:47.643Z,3.40
2018-02-02T07:05:17.369Z,3.30
2018-02-02T07:07:46.396Z,3.50
2018-02-02T07:10:15.765Z,3.40
2018-02-02T07:12:45.252Z,3.40
2018-02-02T07:15:14.960Z,3.40
2018-02-02T07:17:44.767Z,3.40
2018-02-02T07:20:15.238Z,3.60
2018-02-02T07:22:44.613Z,3.50
2018-02-02T07:25:13.597Z,3.50
2018-02-02T07:27:42.789Z,3.60
2018-02-02T07:30:12.518Z,3.60
2018-02-02T07:32:42.265Z,3.50
2018-02-02T07:35:11.204Z,3.50
2018-02-02T07:37:40.977Z,3.60
2018-02-02T07:40:11.648Z,3.50
2018-02-02T07:42:41.381Z,3.40
2018-02-02T07:45:11.030Z,3.30
2018-02-02T07:47:40.040Z,3.30
2018-02-02T07:50:09.043Z,3.40
2018-02-02T07:52:38.759Z,3.50
2018-02-02T07:55:07.757Z,3.60
2018-02-02T07:57:37.210Z,3.60
2018-02-02T08:00:06.599Z,3.70
2018-02-02T08:02:35.949Z,3.80
2018-02-02T08:05:06.346Z,3.70
2018-02-02T08:07:35.298Z,3.80
2018-02-02T08:10:05.050Z,3.70
2018-02-02T08:12:34.813Z,3.60
2018-02-02T08:15:05.384Z,3.70
2018-02-02T08:17:34.836Z,3.90
2018-02-02T08:20:05.600Z,3.90
2018-02-02T08:22:34.600Z,4.00
2018-02-02T08:25:03.549Z,4.10
2018-02-02T08:27:35.511Z,4.20
2018-02-02T08:30:04.994Z,4.30
2018-02-02T08:32:33.963Z,4.40
2018-02-02T08:35:03.672Z,4.30
2018-02-02T08:37:32.663Z,4.20
2018-02-02T08:40:01.611Z,4.40
2018-02-02T08:42:30.568Z,4.50
2018-02-02T08:44:59.542Z,4.40
2018-02-02T08:47:28.516Z,4.50
2018-02-02T08:49:57.444Z,4.60
2018-02-02T08:52:27.206Z,4.70
2018-02-02T08:54:56.153Z,4.70
2018-02-02T08:57:25.554Z,4.80
2018-02-02T08:59:54.572Z,4.80
2018-02-02T09:02:23.542Z,4.80
2018-02-02T09:04:53.268Z,5.00
2018-02-02T09:07:22.406Z,5.10
2018-02-02T09:09:51.452Z,5.00
2018-02-02T09:12:21.157Z,5.10
2018-02-02T09:14:50.977Z,5.10
2018-02-02T09:17:19.982Z,5.30
2018-02-02T09:19:48.980Z,5.60
2018-02-02T09:22:18.047Z,5.80
2018-02-02T09:24:47.000Z,5.90
2018-02-02T09:27:15.928Z,5.80
2018-02-02T09:29:44.900Z,5.50
2018-02-02T09:32:13.869Z,5.40
2018-02-02T09:34:42.836Z,5.40
2018-02-02T09:37:12.212Z,5.40
2018-02-02T09:39:41.942Z,5.50
2018-02-02T09:42:11.346Z,5.60
2018-02-02T09:44:40.336Z,5.60
2018-02-02T09:47:09.353Z,5.60
2018-02-02T09:49:38.361Z,5.70
2018-02-02T09:52:07.304Z,6.10
2018-02-02T09:54:36.395Z,6.30
2018-02-02T09:57:06.132Z,6.30
2018-02-02T09:59:35.873Z,6.30
2018-02-02T10:02:04.857Z,6.20
2018-02-02T10:04:33.834Z,6.10
2018-02-02T10:07:02.802Z,6.00
2018-02-02T10:09:31.746Z,6.60
2018-02-02T10:12:00.780Z,5.80
2018-02-02T10:14:29.769Z,6.00
2018-02-02T10:16:59.514Z,6.20
2018-02-02T10:19:28.985Z,6.30
2018-02-02T10:21:58.701Z,6.30
2018-02-02T10:24:27.654Z,6.30
2018-02-02T10:26:56.621Z,6.40
2018-02-02T10:29:25.569Z,6.50
2018-02-02T10:31:54.937Z,6.50
2018-02-02T10:34:23.983Z,6.80
2018-02-02T10:36:52.938Z,7.00
2018-02-02T10:39:22.674Z,7.20
2018-02-02T10:41:51.624Z,7.50
2018-02-02T10:44:20.802Z,7.60
2018-02-02T10:46:49.763Z,7.60
2018-02-02T10:49:18.822Z,7.60
2018-02-02T10:51:48.561Z,7.80
2018-02-02T10:54:17.506Z,7.70
2018-02-02T10:56:46.479Z,7.70
2018-02-02T10:59:15.423Z,7.50
2018-02-02T11:01:44.460Z,7.60
2018-02-02T11:04:13.411Z,7.60
2018-02-02T11:06:42.461Z,7.40
2018-02-02T11:09:11.407Z,7.50
2018-02-02T11:11:40.388Z,7.60
2018-02-02T11:14:10.091Z,7.60
2018-02-02T11:16:39.792Z,7.80
2018-02-02T11:19:09.601Z,7.80
2018-02-02T11:21:39.308Z,7.80
2018-02-02T11:24:09.037Z,7.50
2018-02-02T11:26:38.768Z,7.60
2018-02-02T11:29:07.697Z,7.60
2018-02-02T11:31:36.672Z,7.60
2018-02-02T11:34:05.646Z,7.50
2018-02-02T11:36:34.583Z,7.70
2018-02-02T11:39:03.535Z,7.80
2018-02-02T11:41:32.598Z,8.00
2018-02-02T11:44:02.349Z,8.70
2018-02-02T11:46:31.265Z,8.20
2018-02-02T11:49:00.234Z,8.30
2018-02-02T11:51:29.942Z,8.30
2018-02-02T11:53:58.906Z,8.30
2018-02-02T11:56:27.968Z,8.20
2018-02-02T11:58:56.961Z,7.90
2018-02-02T12:01:25.910Z,7.70
2018-02-02T12:03:55.178Z,7.50
2018-02-02T12:06:24.658Z,7.70
2018-02-02T12:08:53.979Z,7.50
2018-02-02T12:11:22.948Z,7.60
2018-02-02T12:13:52.729Z,7.50
2018-02-02T12:16:21.676Z,7.50
2018-02-02T12:18:50.647Z,7.60
2018-02-02T12:21:20.045Z,7.60
2018-02-02T12:23:49.309Z,7.60
2018-02-02T12:29:37.559Z,7.50
2018-02-02T12:32:12.800Z,7.70
2018-02-02T12:34:53.530Z,7.80
2018-02-02T12:37:22.932Z,8.90
2018-02-02T12:39:51.876Z,9.40
2018-02-02T12:42:21.268Z,9.40
2018-02-02T12:44:50.307Z,9.60
2018-02-02T12:47:20.062Z,9.70
2018-02-02T12:50:00.987Z,9.80
2018-02-02T12:52:29.918Z,10.20
2018-02-02T12:54:58.916Z,10.20
2018-02-02T12:57:27.884Z,10.60
2018-02-02T12:59:56.897Z,10.10
2018-02-02T13:02:26.621Z,9.70
2018-02-02T13:04:55.557Z,9.30
2018-02-02T13:07:25.279Z,8.80
2018-02-02T13:09:54.232Z,8.00
2018-02-02T13:12:24.000Z,7.30
2018-02-02T13:14:53.025Z,6.80
2018-02-02T13:17:21.993Z,6.50
2018-02-02T13:19:50.910Z,6.40
2018-02-02T13:22:19.852Z,6.40
2018-02-02T13:24:48.941Z,6.40
2018-02-02T13:27:18.680Z,6.50
2018-02-02T13:29:47.600Z,6.60
2018-02-02T13:32:16.590Z,6.50
2018-02-02T13:38:01.763Z,6.70
2018-02-02T13:40:30.698Z,7.10
2018-02-02T13:42:59.637Z,7.20
2018-02-02T13:45:29.363Z,7.40
2018-02-02T13:47:58.331Z,7.50
2018-02-02T13:50:28.077Z,7.60
2018-02-02T13:52:57.771Z,7.70
2018-02-02T13:55:27.511Z,7.70
2018-02-02T13:57:57.213Z,7.70
2018-02-02T14:00:26.971Z,7.50
2018-02-02T14:02:55.918Z,7.30
2018-02-02T14:05:25.673Z,7.30
2018-02-02T14:07:54.601Z,7.20
2018-02-02T14:10:24.321Z,7.10
2018-02-02T14:12:53.296Z,7.10
2018-02-02T14:15:22.268Z,7.00
2018-02-02T14:17:51.228Z,6.90
2018-02-02T14:20:20.172Z,6.80
2018-02-02T14:22:49.311Z,6.70
2018-02-02T14:25:18.237Z,6.70
2018-02-02T14:27:47.240Z,6.70
2018-02-02T14:30:17.573Z,6.70
2018-02-02T14:32:46.524Z,6.60
2018-02-02T14:35:15.487Z,6.60
2018-02-02T14:37:45.379Z,6.50
2018-02-02T14:40:14.365Z,6.40
2018-02-02T14:42:45.311Z,6.40
2018-02-02T14:45:14.281Z,6.50
2018-02-02T14:47:43.238Z,6.40
2018-02-02T14:50:12.583Z,6.50
2018-02-02T14:52:41.816Z,6.50
2018-02-02T14:55:10.883Z,6.40
2018-02-02T14:57:39.850Z,6.50
2018-02-02T15:00:08.835Z,6.50
2018-02-02T15:02:38.191Z,6.50
2018-02-02T15:05:07.422Z,6.50
2018-02-02T15:07:37.151Z,6.50
2018-02-02T15:10:06.408Z,6.50
2018-02-02T15:12:35.647Z,6.50
2018-02-02T15:15:04.609Z,6.40
2018-02-02T15:17:34.660Z,6.30
2018-02-02T15:20:04.915Z,6.10
2018-02-02T15:22:35.593Z,6.00
2018-02-02T15:25:05.139Z,5.90
2018-02-02T15:27:34.071Z,5.90
2018-02-02T15:30:04.699Z,5.70
2018-02-02T15:32:33.795Z,5.70
2018-02-02T15:35:03.413Z,5.60
2018-02-02T15:37:32.334Z,5.60
2018-02-02T15:40:01.359Z,5.60
2018-02-02T15:42:30.309Z,5.60
2018-02-02T15:44:59.653Z,5.50
2018-02-02T15:47:28.600Z,5.50
2018-02-02T15:49:58.332Z,5.50
2018-02-02T15:52:27.300Z,5.50
2018-02-02T15:54:56.272Z,5.40
2018-02-02T15:57:25.608Z,5.50
2018-02-02T15:59:54.539Z,5.40
2018-02-02T16:02:23.525Z,5.40
2018-02-02T16:04:53.263Z,5.40
2018-02-02T16:07:22.231Z,5.30
2018-02-02T16:09:51.504Z,5.40
2018-02-02T16:12:20.474Z,5.40
2018-02-02T16:14:49.418Z,5.40
2018-02-02T16:17:18.401Z,5.20
2018-02-02T16:19:48.097Z,5.20
2018-02-02T16:22:17.457Z,5.20
2018-02-02T16:24:46.469Z,5.10
2018-02-02T16:27:15.445Z,5.00
2018-02-02T16:29:44.561Z,4.90
2018-02-02T16:32:14.345Z,4.40
2018-02-02T16:34:43.346Z,4.80
2018-02-02T16:37:12.392Z,4.80
2018-02-02T16:39:41.633Z,4.80
2018-02-02T16:42:10.889Z,4.90
2018-02-02T16:44:39.828Z,4.80
2018-02-02T16:47:08.772Z,4.90
2018-02-02T16:49:37.878Z,5.00
2018-02-02T16:52:06.877Z,5.00
2018-02-02T16:54:36.166Z,5.10
2018-02-02T16:57:05.132Z,5.00
2018-02-02T16:59:34.071Z,4.90
2018-02-02T17:02:03.406Z,4.90
2018-02-02T17:04:32.358Z,4.80
2018-02-02T17:07:01.358Z,4.80
2018-02-02T17:09:31.037Z,3.50
2018-02-02T17:12:00.319Z,4.90
2018-02-02T17:14:29.535Z,4.90
2018-02-02T17:16:58.532Z,4.80
2018-02-02T17:19:27.514Z,4.80
2018-02-02T17:21:56.509Z,4.80
2018-02-02T17:24:25.512Z,4.80
2018-02-02T17:26:54.517Z,4.70
2018-02-02T17:29:23.496Z,4.70
2018-02-02T17:31:52.424Z,4.80
2018-02-02T17:34:21.399Z,4.80
2018-02-02T17:36:51.108Z,4.90
2018-02-02T17:39:20.850Z,4.90
2018-02-02T17:41:49.813Z,4.80
2018-02-02T17:44:19.556Z,5.00
2018-02-02T17:46:48.573Z,5.00
2018-02-02T17:49:17.979Z,5.00
2018-02-02T17:51:46.941Z,5.10
2018-02-02T17:54:15.899Z,5.10
2018-02-02T17:56:45.627Z,5.10
2018-02-02T17:59:14.603Z,4.90
2018-02-02T18:02:00.077Z,5.10
2018-02-02T18:04:29.861Z,5.00
2018-02-02T18:06:58.840Z,4.90
2018-02-02T18:09:28.589Z,4.90
2018-02-02T18:11:58.317Z,5.00
2018-02-02T18:14:27.723Z,5.10
2018-02-02T18:16:56.744Z,5.00
2018-02-02T18:19:26.524Z,5.00
2018-02-02T18:21:55.498Z,5.00
2018-02-02T18:24:25.470Z,4.90
2018-02-02T18:26:54.948Z,4.90
2018-02-02T18:29:25.045Z,4.90
2018-02-02T18:31:54.803Z,5.00
2018-02-02T18:34:23.791Z,4.90
2018-02-02T18:36:53.606Z,4.80
2018-02-02T18:39:23.318Z,4.70
2018-02-02T18:41:52.298Z,4.60
2018-02-02T18:44:21.288Z,4.50
2018-02-02T18:46:50.240Z,4.60
2018-02-02T18:49:19.609Z,4.60
2018-02-02T18:51:48.602Z,4.70
2018-02-02T18:54:17.689Z,4.70
2018-02-02T18:56:46.660Z,4.70
2018-02-02T18:59:15.672Z,4.70
2018-02-02T19:01:45.092Z,4.60
2018-02-02T19:04:14.379Z,4.60
2018-02-02T19:06:43.446Z,4.60
2018-02-02T19:09:12.850Z,4.50
2018-02-02T19:11:42.186Z,4.50
2018-02-02T19:14:11.612Z,4.60
2018-02-02T19:16:41.424Z,4.60
2018-02-02T19:19:11.178Z,4.60
2018-02-02T19:21:40.156Z,4.60
2018-02-02T19:24:09.209Z,4.60
2018-02-02T19:26:38.215Z,4.60
2018-02-02T19:29:08.337Z,4.80
2018-02-02T19:31:39.648Z,4.70
2018-02-02T19:34:10.789Z,4.70
2018-02-02T19:36:39.786Z,4.60
2018-02-02T19:39:08.813Z,4.60
2018-02-02T19:41:37.797Z,4.50
2018-02-02T19:44:07.708Z,4.50
2018-02-02T19:46:36.796Z,4.50
2018-02-02T19:49:05.845Z,4.50
2018-02-02T19:51:35.379Z,4.50
2018-02-02T19:54:04.760Z,4.50
2018-02-02T19:56:34.636Z,4.50
2018-02-02T19:59:04.013Z,4.40
2018-02-02T20:01:34.074Z,4.40
2018-02-02T20:04:03.334Z,4.50
2018-02-02T20:06:33.084Z,4.50
2018-02-02T20:09:13.983Z,4.50
2018-02-02T20:11:43.073Z,4.50
2018-02-02T20:14:12.151Z,4.60
2018-02-02T20:16:42.014Z,4.60
2018-02-02T20:19:11.106Z,4.50
2018-02-02T20:21:40.919Z,4.60
2018-02-02T20:24:10.702Z,4.60
2018-02-02T20:26:40.120Z,4.60
2018-02-02T20:29:09.179Z,4.60
2018-02-02T20:31:38.192Z,4.30
2018-02-02T20:34:08.515Z,4.30
2018-02-02T20:36:37.537Z,4.20
2018-02-02T20:39:07.317Z,4.20
2018-02-02T20:41:36.320Z,4.10
2018-02-02T20:44:05.395Z,4.20
2018-02-02T20:46:34.469Z,4.20
2018-02-02T20:49:03.522Z,4.20
2018-02-02T20:51:33.362Z,4.20
2018-02-02T20:54:04.164Z,4.30
2018-02-02T20:56:33.164Z,4.20
2018-02-02T20:59:02.232Z,4.30
2018-02-02T21:01:31.318Z,4.30
2018-02-02T21:04:00.370Z,4.30
2018-02-02T21:06:29.791Z,4.30
2018-02-02T21:08:59.603Z,4.30
2018-02-02T21:11:29.996Z,4.20
2018-02-02T21:13:59.746Z,4.30
2018-02-02T21:16:28.807Z,4.30
2018-02-02T21:18:58.608Z,4.30
2018-02-02T21:21:28.949Z,4.20
2018-02-02T21:23:57.979Z,4.20
2018-02-02T21:26:27.113Z,4.40
2018-02-02T21:28:56.091Z,4.30
2018-02-02T21:31:25.566Z,4.30
2018-02-02T21:33:54.598Z,4.30
2018-02-02T21:36:23.581Z,4.30
2018-02-02T21:38:53.014Z,4.30
2018-02-02T21:41:22.056Z,4.30
2018-02-02T21:43:51.471Z,4.20
2018-02-02T21:46:21.310Z,4.20
2018-02-02T21:48:51.092Z,4.30
2018-02-02T21:51:20.559Z,4.30
2018-02-02T21:53:49.956Z,4.30
2018-02-02T21:56:18.959Z,4.20
2018-02-02T21:58:49.098Z,4.20
2018-02-02T22:01:18.936Z,4.20
2018-02-02T22:03:50.389Z,4.30
2018-02-02T22:06:19.612Z,4.20
2018-02-02T22:08:49.375Z,4.30
2018-02-02T22:11:18.341Z,4.30
2018-02-02T22:13:47.308Z,4.10
2018-02-02T22:16:17.239Z,4.10
2018-02-02T22:18:46.305Z,4.10
2018-02-02T22:21:16.110Z,4.10
2018-02-02T22:23:45.104Z,4.10
2018-02-02T22:26:14.848Z,4.10
2018-02-02T22:28:44.238Z,4.10
2018-02-02T22:31:13.245Z,4.10
2018-02-02T22:33:42.712Z,4.10
2018-02-02T22:36:12.493Z,4.00
2018-02-02T22:38:41.482Z,4.10
2018-02-02T22:41:10.445Z,4.10
2018-02-02T22:43:39.802Z,4.10
2018-02-02T22:46:09.217Z,4.10
2018-02-02T22:48:38.201Z,4.00
2018-02-02T22:51:07.531Z,4.00
2018-02-02T22:53:36.529Z,4.10
2018-02-02T22:56:06.254Z,4.10
2018-02-02T22:58:35.465Z,4.00
2018-02-02T23:01:04.447Z,4.10
2018-02-02T23:03:33.393Z,4.10
2018-02-02T23:06:02.965Z,4.10
2018-02-02T23:08:31.902Z,4.10
2018-02-02T23:11:01.043Z,4.30
2018-02-02T23:13:29.995Z,4.30
2018-02-02T23:15:58.968Z,4.20
2018-02-02T23:18:28.308Z,4.10
2018-02-02T23:20:57.589Z,4.00
2018-02-02T23:23:26.569Z,4.00
2018-02-02T23:25:55.529Z,4.00
2018-02-02T23:28:24.676Z,4.00
2018-02-02T23:30:53.612Z,4.00
2018-02-02T23:33:22.573Z,4.10
2018-02-02T23:35:51.544Z,4.10
2018-02-02T23:38:20.484Z,4.00
2018-02-02T23:40:49.521Z,3.80
2018-02-02T23:43:18.525Z,3.70
2018-02-02T23:48:11.462Z,3.60
2018-02-02T23:50:41.176Z,3.40
2018-02-02T23:53:10.940Z,3.40
2018-02-02T23:55:39.890Z,3.40
2018-02-02T23:58:09.686Z,3.50
